sensor_id;sensor_type;location;lat;lon;timestamp;temperature;humidity
23089;DHT22;11713;48.506;8.966;2023-09-07T00:01:30;16.10;99.90
23089;DHT22;11713;48.506;8.966;2023-09-07T00:03:56;16.10;99.90
23089;DHT22;11713;48.506;8.966;2023-09-07T00:06:23;16.10;99.90
23089;DHT22;11713;48.506;8.966;2023-09-07T00:08:48;16.00;99.90
23089;DHT22;11713;48.506;8.966;2023-09-07T00:11:14;16.00;99.90
23089;DHT22;11713;48.506;8.966;2023-09-07T00:13:40;16.00;99.90
23089;DHT22;11713;48.506;8.966;2023-09-07T00:16:06;16.00;99.90
23089;DHT22;11713;48.506;8.966;2023-09-07T00:18:33;16.00;99.90
23089;DHT22;11713;48.506;8.966;2023-09-07T00:20:59;16.00;99.90
23089;DHT22;11713;48.506;8.966;2023-09-07T00:23:26;15.90;99.90
23089;DHT22;11713;48.506;8.966;2023-09-07T00:25:52;15.90;99.90
23089;DHT22;11713;48.506;8.966;2023-09-07T00:28:17;15.80;99.90
23089;DHT22;11713;48.506;8.966;2023-09-07T00:30:43;15.80;99.90
23089;DHT22;11713;48.506;8.966;2023-09-07T00:33:09;15.80;99.90
23089;DHT22;11713;48.506;8.966;2023-09-07T00:35:36;15.70;99.90
23089;DHT22;11713;48.506;8.966;2023-09-07T00:38:03;15.70;99.90
23089;DHT22;11713;48.506;8.966;2023-09-07T00:40:30;15.70;99.90
23089;DHT22;11713;48.506;8.966;2023-09-07T00:42:56;15.70;99.90
23089;DHT22;11713;48.506;8.966;2023-09-07T00:45:22;15.60;99.90
23089;DHT22;11713;48.506;8.966;2023-09-07T00:47:48;15.60;99.90
23089;DHT22;11713;48.506;8.966;2023-09-07T00:50:14;15.60;99.90
23089;DHT22;11713;48.506;8.966;2023-09-07T00:52:43;15.50;99.90
23089;DHT22;11713;48.506;8.966;2023-09-07T00:55:09;15.40;99.90
23089;DHT22;11713;48.506;8.966;2023-09-07T00:57:36;15.30;99.90
23089;DHT22;11713;48.506;8.966;2023-09-07T01:00:07;15.30;99.90
23089;DHT22;11713;48.506;8.966;2023-09-07T01:02:34;15.20;99.90
23089;DHT22;11713;48.506;8.966;2023-09-07T01:05:01;15.20;99.90
23089;DHT22;11713;48.506;8.966;2023-09-07T01:07:40;15.20;99.90
23089;DHT22;11713;48.506;8.966;2023-09-07T01:10:08;15.10;99.90
23089;DHT22;11713;48.506;8.966;2023-09-07T01:12:34;15.10;99.90
23089;DHT22;11713;48.506;8.966;2023-09-07T01:15:00;15.00;99.90
23089;DHT22;11713;48.506;8.966;2023-09-07T01:17:27;15.00;99.90
23089;DHT22;11713;48.506;8.966;2023-09-07T01:19:54;15.00;99.90
23089;DHT22;11713;48.506;8.966;2023-09-07T01:22:22;15.00;99.90
23089;DHT22;11713;48.506;8.966;2023-09-07T01:24:50;15.00;99.90
23089;DHT22;11713;48.506;8.966;2023-09-07T01:27:17;15.00;99.90
23089;DHT22;11713;48.506;8.966;2023-09-07T01:29:43;14.90;99.90
23089;DHT22;11713;48.506;8.966;2023-09-07T01:32:09;14.90;99.90
23089;DHT22;11713;48.506;8.966;2023-09-07T01:34:37;14.90;99.90
23089;DHT22;11713;48.506;8.966;2023-09-07T01:37:03;14.90;99.90
23089;DHT22;11713;48.506;8.966;2023-09-07T01:39:28;14.90;99.90
23089;DHT22;11713;48.506;8.966;2023-09-07T01:41:54;14.90;99.90
23089;DHT22;11713;48.506;8.966;2023-09-07T01:44:20;14.90;99.90
23089;DHT22;11713;48.506;8.966;2023-09-07T01:46:46;14.80;99.90
23089;DHT22;11713;48.506;8.966;2023-09-07T01:49:11;14.80;99.90
23089;DHT22;11713;48.506;8.966;2023-09-07T01:51:37;14.80;99.90
23089;DHT22;11713;48.506;8.966;2023-09-07T01:54:04;14.80;99.90
23089;DHT22;11713;48.506;8.966;2023-09-07T01:56:31;14.70;99.90
23089;DHT22;11713;48.506;8.966;2023-09-07T01:58:57;14.70;99.90
23089;DHT22;11713;48.506;8.966;2023-09-07T02:01:27;14.70;99.90
23089;DHT22;11713;48.506;8.966;2023-09-07T02:03:55;14.60;99.90
23089;DHT22;11713;48.506;8.966;2023-09-07T02:06:21;14.60;99.90
23089;DHT22;11713;48.506;8.966;2023-09-07T02:08:47;14.50;99.90
23089;DHT22;11713;48.506;8.966;2023-09-07T02:11:14;14.50;99.90
23089;DHT22;11713;48.506;8.966;2023-09-07T02:13:45;14.60;99.90
23089;DHT22;11713;48.506;8.966;2023-09-07T02:16:11;14.50;99.90
23089;DHT22;11713;48.506;8.966;2023-09-07T02:18:37;14.50;99.90
23089;DHT22;11713;48.506;8.966;2023-09-07T02:21:05;14.50;99.90
23089;DHT22;11713;48.506;8.966;2023-09-07T02:23:32;14.50;99.90
23089;DHT22;11713;48.506;8.966;2023-09-07T02:25:59;14.40;99.90
23089;DHT22;11713;48.506;8.966;2023-09-07T02:28:25;14.50;99.90
23089;DHT22;11713;48.506;8.966;2023-09-07T02:30:52;14.40;99.90
23089;DHT22;11713;48.506;8.966;2023-09-07T02:33:18;14.50;99.90
23089;DHT22;11713;48.506;8.966;2023-09-07T02:35:44;14.50;99.90
23089;DHT22;11713;48.506;8.966;2023-09-07T02:38:10;14.40;99.90
23089;DHT22;11713;48.506;8.966;2023-09-07T02:40:43;14.40;99.90
23089;DHT22;11713;48.506;8.966;2023-09-07T02:43:10;14.40;99.90
23089;DHT22;11713;48.506;8.966;2023-09-07T02:45:36;14.30;99.90
23089;DHT22;11713;48.506;8.966;2023-09-07T02:48:03;14.30;99.90
23089;DHT22;11713;48.506;8.966;2023-09-07T02:50:31;14.20;99.90
23089;DHT22;11713;48.506;8.966;2023-09-07T02:52:58;14.20;99.90
23089;DHT22;11713;48.506;8.966;2023-09-07T02:55:24;14.20;99.90
23089;DHT22;11713;48.506;8.966;2023-09-07T02:57:51;14.20;99.90
23089;DHT22;11713;48.506;8.966;2023-09-07T03:00:17;14.10;99.90
23089;DHT22;11713;48.506;8.966;2023-09-07T03:02:44;14.10;99.90
23089;DHT22;11713;48.506;8.966;2023-09-07T03:05:11;14.10;99.90
23089;DHT22;11713;48.506;8.966;2023-09-07T03:07:37;14.10;99.90
23089;DHT22;11713;48.506;8.966;2023-09-07T03:10:05;14.10;99.90
23089;DHT22;11713;48.506;8.966;2023-09-07T03:12:31;14.10;99.90
23089;DHT22;11713;48.506;8.966;2023-09-07T03:14:57;14.10;99.90
23089;DHT22;11713;48.506;8.966;2023-09-07T03:17:23;14.10;99.90
23089;DHT22;11713;48.506;8.966;2023-09-07T03:19:49;14.00;99.90
23089;DHT22;11713;48.506;8.966;2023-09-07T03:22:15;13.90;99.90
23089;DHT22;11713;48.506;8.966;2023-09-07T03:24:41;13.90;99.90
23089;DHT22;11713;48.506;8.966;2023-09-07T03:27:07;13.90;99.90
23089;DHT22;11713;48.506;8.966;2023-09-07T03:29:33;13.90;99.90
23089;DHT22;11713;48.506;8.966;2023-09-07T03:31:59;13.80;99.90
23089;DHT22;11713;48.506;8.966;2023-09-07T03:34:26;13.80;99.90
23089;DHT22;11713;48.506;8.966;2023-09-07T03:36:52;13.80;99.90
23089;DHT22;11713;48.506;8.966;2023-09-07T03:39:18;13.70;99.90
23089;DHT22;11713;48.506;8.966;2023-09-07T03:41:48;13.70;99.90
23089;DHT22;11713;48.506;8.966;2023-09-07T03:44:14;13.70;99.90
23089;DHT22;11713;48.506;8.966;2023-09-07T03:46:40;13.70;99.90
23089;DHT22;11713;48.506;8.966;2023-09-07T03:49:06;13.60;99.90
23089;DHT22;11713;48.506;8.966;2023-09-07T03:51:32;13.60;99.90
23089;DHT22;11713;48.506;8.966;2023-09-07T03:53:58;13.60;99.90
23089;DHT22;11713;48.506;8.966;2023-09-07T03:56:24;13.60;99.90
23089;DHT22;11713;48.506;8.966;2023-09-07T03:58:51;13.60;99.90
23089;DHT22;11713;48.506;8.966;2023-09-07T04:01:17;13.50;99.90
23089;DHT22;11713;48.506;8.966;2023-09-07T04:03:42;13.50;99.90
23089;DHT22;11713;48.506;8.966;2023-09-07T04:06:08;13.50;99.90
23089;DHT22;11713;48.506;8.966;2023-09-07T04:08:35;13.40;99.90
23089;DHT22;11713;48.506;8.966;2023-09-07T04:11:05;13.40;99.90
23089;DHT22;11713;48.506;8.966;2023-09-07T04:13:31;13.40;99.90
23089;DHT22;11713;48.506;8.966;2023-09-07T04:15:59;13.40;99.90
23089;DHT22;11713;48.506;8.966;2023-09-07T04:18:25;13.40;99.90
23089;DHT22;11713;48.506;8.966;2023-09-07T04:20:51;13.30;99.90
23089;DHT22;11713;48.506;8.966;2023-09-07T04:23:17;13.30;99.90
23089;DHT22;11713;48.506;8.966;2023-09-07T04:25:43;13.20;99.90
23089;DHT22;11713;48.506;8.966;2023-09-07T04:28:11;13.20;99.90
23089;DHT22;11713;48.506;8.966;2023-09-07T04:30:38;13.10;99.90
23089;DHT22;11713;48.506;8.966;2023-09-07T04:33:04;13.10;99.90
23089;DHT22;11713;48.506;8.966;2023-09-07T04:35:30;13.10;99.90
23089;DHT22;11713;48.506;8.966;2023-09-07T04:37:57;13.10;99.90
23089;DHT22;11713;48.506;8.966;2023-09-07T04:40:24;13.10;99.90
23089;DHT22;11713;48.506;8.966;2023-09-07T04:42:51;13.00;99.90
23089;DHT22;11713;48.506;8.966;2023-09-07T04:45:17;13.00;99.90
23089;DHT22;11713;48.506;8.966;2023-09-07T04:47:43;13.10;99.90
23089;DHT22;11713;48.506;8.966;2023-09-07T04:50:10;13.10;99.90
23089;DHT22;11713;48.506;8.966;2023-09-07T04:52:36;13.00;99.90
23089;DHT22;11713;48.506;8.966;2023-09-07T04:55:02;13.00;99.90
23089;DHT22;11713;48.506;8.966;2023-09-07T04:57:30;13.00;99.90
23089;DHT22;11713;48.506;8.966;2023-09-07T04:59:56;13.00;99.90
23089;DHT22;11713;48.506;8.966;2023-09-07T05:02:22;13.00;99.90
23089;DHT22;11713;48.506;8.966;2023-09-07T05:04:48;12.90;99.90
23089;DHT22;11713;48.506;8.966;2023-09-07T05:07:15;12.90;99.90
23089;DHT22;11713;48.506;8.966;2023-09-07T05:09:42;12.90;99.90
23089;DHT22;11713;48.506;8.966;2023-09-07T05:12:08;13.00;99.90
23089;DHT22;11713;48.506;8.966;2023-09-07T05:14:34;13.00;99.90
23089;DHT22;11713;48.506;8.966;2023-09-07T05:16:59;13.00;99.90
23089;DHT22;11713;48.506;8.966;2023-09-07T05:19:26;13.00;99.90
23089;DHT22;11713;48.506;8.966;2023-09-07T05:21:51;13.00;99.90
23089;DHT22;11713;48.506;8.966;2023-09-07T05:24:17;13.10;99.90
23089;DHT22;11713;48.506;8.966;2023-09-07T05:26:43;13.10;99.90
23089;DHT22;11713;48.506;8.966;2023-09-07T05:29:11;13.20;99.90
23089;DHT22;11713;48.506;8.966;2023-09-07T05:31:37;13.20;99.90
23089;DHT22;11713;48.506;8.966;2023-09-07T05:34:03;13.30;99.90
23089;DHT22;11713;48.506;8.966;2023-09-07T05:36:29;13.20;99.90
23089;DHT22;11713;48.506;8.966;2023-09-07T05:38:55;13.20;99.90
23089;DHT22;11713;48.506;8.966;2023-09-07T05:41:21;13.30;99.90
23089;DHT22;11713;48.506;8.966;2023-09-07T05:43:47;13.40;99.90
23089;DHT22;11713;48.506;8.966;2023-09-07T05:46:14;13.40;99.90
23089;DHT22;11713;48.506;8.966;2023-09-07T05:48:40;13.50;99.90
23089;DHT22;11713;48.506;8.966;2023-09-07T05:51:06;13.50;99.90
23089;DHT22;11713;48.506;8.966;2023-09-07T05:53:32;13.60;99.90
23089;DHT22;11713;48.506;8.966;2023-09-07T05:55:58;13.70;99.90
23089;DHT22;11713;48.506;8.966;2023-09-07T05:58:24;13.80;99.90
23089;DHT22;11713;48.506;8.966;2023-09-07T06:00:49;13.90;99.90
23089;DHT22;11713;48.506;8.966;2023-09-07T06:03:16;14.00;99.90
23089;DHT22;11713;48.506;8.966;2023-09-07T06:05:41;14.10;99.90
23089;DHT22;11713;48.506;8.966;2023-09-07T06:08:09;14.20;99.90
23089;DHT22;11713;48.506;8.966;2023-09-07T06:10:36;14.30;99.90
23089;DHT22;11713;48.506;8.966;2023-09-07T06:13:03;14.30;99.90
23089;DHT22;11713;48.506;8.966;2023-09-07T06:15:29;14.40;99.90
23089;DHT22;11713;48.506;8.966;2023-09-07T06:17:55;14.50;99.90
23089;DHT22;11713;48.506;8.966;2023-09-07T06:20:21;14.60;99.90
23089;DHT22;11713;48.506;8.966;2023-09-07T06:22:47;14.70;99.90
23089;DHT22;11713;48.506;8.966;2023-09-07T06:25:15;14.70;99.90
23089;DHT22;11713;48.506;8.966;2023-09-07T06:27:41;14.80;99.90
23089;DHT22;11713;48.506;8.966;2023-09-07T06:30:08;15.00;99.90
23089;DHT22;11713;48.506;8.966;2023-09-07T06:32:35;15.10;99.90
23089;DHT22;11713;48.506;8.966;2023-09-07T06:35:02;15.20;99.90
23089;DHT22;11713;48.506;8.966;2023-09-07T06:37:28;15.30;99.90
23089;DHT22;11713;48.506;8.966;2023-09-07T06:39:53;15.30;99.90
23089;DHT22;11713;48.506;8.966;2023-09-07T06:42:19;15.40;99.90
23089;DHT22;11713;48.506;8.966;2023-09-07T06:44:50;15.50;99.90
23089;DHT22;11713;48.506;8.966;2023-09-07T06:47:17;15.60;99.90
23089;DHT22;11713;48.506;8.966;2023-09-07T06:49:43;15.60;99.90
23089;DHT22;11713;48.506;8.966;2023-09-07T06:52:09;15.70;99.90
23089;DHT22;11713;48.506;8.966;2023-09-07T06:54:37;15.80;99.90
23089;DHT22;11713;48.506;8.966;2023-09-07T06:57:07;15.90;99.90
23089;DHT22;11713;48.506;8.966;2023-09-07T06:59:34;16.00;99.90
23089;DHT22;11713;48.506;8.966;2023-09-07T07:02:00;16.00;99.90
23089;DHT22;11713;48.506;8.966;2023-09-07T07:04:27;16.20;99.90
23089;DHT22;11713;48.506;8.966;2023-09-07T07:06:53;16.20;99.90
23089;DHT22;11713;48.506;8.966;2023-09-07T07:09:20;16.30;99.90
23089;DHT22;11713;48.506;8.966;2023-09-07T07:11:46;16.40;99.90
23089;DHT22;11713;48.506;8.966;2023-09-07T07:14:12;16.50;99.90
23089;DHT22;11713;48.506;8.966;2023-09-07T07:16:38;16.60;99.90
23089;DHT22;11713;48.506;8.966;2023-09-07T07:19:03;16.70;99.90
23089;DHT22;11713;48.506;8.966;2023-09-07T07:21:29;16.80;99.90
23089;DHT22;11713;48.506;8.966;2023-09-07T07:23:55;16.90;99.90
23089;DHT22;11713;48.506;8.966;2023-09-07T07:26:22;16.90;99.90
23089;DHT22;11713;48.506;8.966;2023-09-07T07:28:48;17.00;99.90
23089;DHT22;11713;48.506;8.966;2023-09-07T07:31:14;17.10;99.90
23089;DHT22;11713;48.506;8.966;2023-09-07T07:33:45;17.10;99.90
23089;DHT22;11713;48.506;8.966;2023-09-07T07:36:15;17.20;99.90
23089;DHT22;11713;48.506;8.966;2023-09-07T07:38:42;17.30;99.90
23089;DHT22;11713;48.506;8.966;2023-09-07T07:41:07;17.40;99.90
23089;DHT22;11713;48.506;8.966;2023-09-07T07:43:33;17.50;99.90
23089;DHT22;11713;48.506;8.966;2023-09-07T07:45:59;17.60;99.90
23089;DHT22;11713;48.506;8.966;2023-09-07T07:48:26;17.80;99.90
23089;DHT22;11713;48.506;8.966;2023-09-07T07:50:54;17.90;99.90
23089;DHT22;11713;48.506;8.966;2023-09-07T07:53:20;18.10;99.90
23089;DHT22;11713;48.506;8.966;2023-09-07T07:55:46;18.20;99.90
23089;DHT22;11713;48.506;8.966;2023-09-07T07:58:16;18.40;99.90
23089;DHT22;11713;48.506;8.966;2023-09-07T08:00:42;18.50;99.90
23089;DHT22;11713;48.506;8.966;2023-09-07T08:03:13;18.50;99.90
23089;DHT22;11713;48.506;8.966;2023-09-07T08:05:39;18.60;99.90
23089;DHT22;11713;48.506;8.966;2023-09-07T08:08:07;18.70;99.90
23089;DHT22;11713;48.506;8.966;2023-09-07T08:10:37;18.90;99.90
23089;DHT22;11713;48.506;8.966;2023-09-07T08:13:04;19.00;99.90
23089;DHT22;11713;48.506;8.966;2023-09-07T08:15:32;19.20;99.90
23089;DHT22;11713;48.506;8.966;2023-09-07T08:18:00;19.40;99.90
23089;DHT22;11713;48.506;8.966;2023-09-07T08:20:26;19.40;99.90
23089;DHT22;11713;48.506;8.966;2023-09-07T08:22:53;19.50;99.90
23089;DHT22;11713;48.506;8.966;2023-09-07T08:25:19;19.70;99.90
23089;DHT22;11713;48.506;8.966;2023-09-07T08:27:46;19.80;99.90
23089;DHT22;11713;48.506;8.966;2023-09-07T08:30:14;20.00;99.90
23089;DHT22;11713;48.506;8.966;2023-09-07T08:32:44;20.10;99.90
23089;DHT22;11713;48.506;8.966;2023-09-07T08:35:11;20.30;99.90
23089;DHT22;11713;48.506;8.966;2023-09-07T08:37:42;20.40;99.90
23089;DHT22;11713;48.506;8.966;2023-09-07T08:40:09;20.60;99.90
23089;DHT22;11713;48.506;8.966;2023-09-07T08:42:36;20.60;99.90
23089;DHT22;11713;48.506;8.966;2023-09-07T08:45:03;20.70;99.90
23089;DHT22;11713;48.506;8.966;2023-09-07T08:47:37;20.90;99.90
23089;DHT22;11713;48.506;8.966;2023-09-07T08:50:05;21.00;99.90
23089;DHT22;11713;48.506;8.966;2023-09-07T08:52:34;21.10;99.90
23089;DHT22;11713;48.506;8.966;2023-09-07T08:55:01;21.30;99.90
23089;DHT22;11713;48.506;8.966;2023-09-07T08:57:30;21.20;99.90
23089;DHT22;11713;48.506;8.966;2023-09-07T08:59:57;21.40;99.90
23089;DHT22;11713;48.506;8.966;2023-09-07T09:02:23;21.50;99.90
23089;DHT22;11713;48.506;8.966;2023-09-07T09:04:49;21.70;99.90
23089;DHT22;11713;48.506;8.966;2023-09-07T09:07:16;21.90;99.90
23089;DHT22;11713;48.506;8.966;2023-09-07T09:09:41;22.10;99.90
23089;DHT22;11713;48.506;8.966;2023-09-07T09:12:11;22.20;99.90
23089;DHT22;11713;48.506;8.966;2023-09-07T09:14:37;22.40;99.90
23089;DHT22;11713;48.506;8.966;2023-09-07T09:17:03;22.50;99.90
23089;DHT22;11713;48.506;8.966;2023-09-07T09:19:33;22.70;99.90
23089;DHT22;11713;48.506;8.966;2023-09-07T09:22:00;22.90;99.90
23089;DHT22;11713;48.506;8.966;2023-09-07T09:24:26;23.00;99.90
23089;DHT22;11713;48.506;8.966;2023-09-07T09:26:52;23.20;99.90
23089;DHT22;11713;48.506;8.966;2023-09-07T09:29:22;23.30;99.90
23089;DHT22;11713;48.506;8.966;2023-09-07T09:31:49;23.50;99.90
23089;DHT22;11713;48.506;8.966;2023-09-07T09:34:15;23.60;99.90
23089;DHT22;11713;48.506;8.966;2023-09-07T09:36:42;23.60;99.90
23089;DHT22;11713;48.506;8.966;2023-09-07T09:39:09;23.60;99.90
23089;DHT22;11713;48.506;8.966;2023-09-07T09:41:35;23.70;99.90
23089;DHT22;11713;48.506;8.966;2023-09-07T09:44:03;23.90;99.90
23089;DHT22;11713;48.506;8.966;2023-09-07T09:46:31;24.10;99.90
23089;DHT22;11713;48.506;8.966;2023-09-07T09:48:58;24.10;99.90
23089;DHT22;11713;48.506;8.966;2023-09-07T09:51:24;24.30;99.90
23089;DHT22;11713;48.506;8.966;2023-09-07T09:53:51;24.30;99.90
23089;DHT22;11713;48.506;8.966;2023-09-07T09:56:19;24.40;99.90
23089;DHT22;11713;48.506;8.966;2023-09-07T09:58:46;24.50;99.90
23089;DHT22;11713;48.506;8.966;2023-09-07T10:01:12;24.70;99.90
23089;DHT22;11713;48.506;8.966;2023-09-07T10:03:46;24.90;99.90
23089;DHT22;11713;48.506;8.966;2023-09-07T10:06:18;25.10;99.90
23089;DHT22;11713;48.506;8.966;2023-09-07T10:11:37;25.40;99.90
23089;DHT22;11713;48.506;8.966;2023-09-07T10:14:05;25.60;99.90
23089;DHT22;11713;48.506;8.966;2023-09-07T10:16:46;25.70;99.90
23089;DHT22;11713;48.506;8.966;2023-09-07T10:19:22;25.50;99.90
23089;DHT22;11713;48.506;8.966;2023-09-07T10:21:48;25.60;99.90
23089;DHT22;11713;48.506;8.966;2023-09-07T10:24:28;25.70;99.90
23089;DHT22;11713;48.506;8.966;2023-09-07T10:29:28;26.00;99.90
23089;DHT22;11713;48.506;8.966;2023-09-07T10:31:54;26.00;99.90
23089;DHT22;11713;48.506;8.966;2023-09-07T10:34:20;26.10;99.90
23089;DHT22;11713;48.506;8.966;2023-09-07T10:36:48;26.20;99.90
23089;DHT22;11713;48.506;8.966;2023-09-07T10:39:16;26.40;99.90
23089;DHT22;11713;48.506;8.966;2023-09-07T10:41:43;26.50;99.90
23089;DHT22;11713;48.506;8.966;2023-09-07T10:44:09;26.60;99.90
23089;DHT22;11713;48.506;8.966;2023-09-07T10:46:39;26.60;99.90
23089;DHT22;11713;48.506;8.966;2023-09-07T10:49:11;26.50;99.90
23089;DHT22;11713;48.506;8.966;2023-09-07T10:51:45;26.70;99.90
23089;DHT22;11713;48.506;8.966;2023-09-07T10:54:31;26.60;99.90
23089;DHT22;11713;48.506;8.966;2023-09-07T10:57:08;26.70;99.90
23089;DHT22;11713;48.506;8.966;2023-09-07T10:59:33;26.90;99.90
23089;DHT22;11713;48.506;8.966;2023-09-07T11:02:06;26.90;99.90
23089;DHT22;11713;48.506;8.966;2023-09-07T11:04:32;27.00;99.90
23089;DHT22;11713;48.506;8.966;2023-09-07T11:06:58;27.20;99.90
23089;DHT22;11713;48.506;8.966;2023-09-07T11:09:24;27.40;99.90
23089;DHT22;11713;48.506;8.966;2023-09-07T11:11:50;27.40;99.90
23089;DHT22;11713;48.506;8.966;2023-09-07T11:14:16;27.50;99.90
23089;DHT22;11713;48.506;8.966;2023-09-07T11:16:41;27.50;99.90
23089;DHT22;11713;48.506;8.966;2023-09-07T11:19:08;27.70;99.90
23089;DHT22;11713;48.506;8.966;2023-09-07T11:21:35;27.80;99.90
23089;DHT22;11713;48.506;8.966;2023-09-07T11:24:02;28.00;99.90
23089;DHT22;11713;48.506;8.966;2023-09-07T11:26:43;28.20;99.90
23089;DHT22;11713;48.506;8.966;2023-09-07T11:29:09;28.40;99.90
23089;DHT22;11713;48.506;8.966;2023-09-07T11:31:35;28.40;99.90
23089;DHT22;11713;48.506;8.966;2023-09-07T11:34:01;28.50;99.90
23089;DHT22;11713;48.506;8.966;2023-09-07T11:36:27;28.60;99.90
23089;DHT22;11713;48.506;8.966;2023-09-07T11:38:53;28.70;99.90
23089;DHT22;11713;48.506;8.966;2023-09-07T11:41:19;28.90;99.90
23089;DHT22;11713;48.506;8.966;2023-09-07T11:43:45;29.00;99.90
23089;DHT22;11713;48.506;8.966;2023-09-07T11:46:11;29.10;99.90
23089;DHT22;11713;48.506;8.966;2023-09-07T11:48:36;29.10;99.90
23089;DHT22;11713;48.506;8.966;2023-09-07T11:51:02;29.30;99.90
23089;DHT22;11713;48.506;8.966;2023-09-07T11:53:28;29.30;99.90
23089;DHT22;11713;48.506;8.966;2023-09-07T11:55:55;29.20;99.90
23089;DHT22;11713;48.506;8.966;2023-09-07T11:58:21;29.30;99.90
23089;DHT22;11713;48.506;8.966;2023-09-07T12:00:47;29.40;99.90
23089;DHT22;11713;48.506;8.966;2023-09-07T12:03:13;29.60;99.90
23089;DHT22;11713;48.506;8.966;2023-09-07T12:05:39;29.70;99.90
23089;DHT22;11713;48.506;8.966;2023-09-07T12:08:07;29.90;99.90
23089;DHT22;11713;48.506;8.966;2023-09-07T12:10:32;30.00;99.90
23089;DHT22;11713;48.506;8.966;2023-09-07T12:12:59;30.10;99.90
23089;DHT22;11713;48.506;8.966;2023-09-07T12:15:25;30.10;99.90
23089;DHT22;11713;48.506;8.966;2023-09-07T12:17:50;30.30;99.90
23089;DHT22;11713;48.506;8.966;2023-09-07T12:20:20;30.30;99.90
23089;DHT22;11713;48.506;8.966;2023-09-07T12:22:46;30.40;99.90
23089;DHT22;11713;48.506;8.966;2023-09-07T12:25:12;30.20;99.90
23089;DHT22;11713;48.506;8.966;2023-09-07T12:27:38;30.10;99.90
23089;DHT22;11713;48.506;8.966;2023-09-07T12:30:04;30.30;99.90
23089;DHT22;11713;48.506;8.966;2023-09-07T12:32:34;30.40;99.90
23089;DHT22;11713;48.506;8.966;2023-09-07T12:34:59;30.60;99.90
23089;DHT22;11713;48.506;8.966;2023-09-07T12:37:25;30.70;99.90
23089;DHT22;11713;48.506;8.966;2023-09-07T12:39:51;30.80;99.90
23089;DHT22;11713;48.506;8.966;2023-09-07T12:42:17;31.00;99.90
23089;DHT22;11713;48.506;8.966;2023-09-07T12:44:44;31.20;99.90
23089;DHT22;11713;48.506;8.966;2023-09-07T12:47:10;31.30;99.90
23089;DHT22;11713;48.506;8.966;2023-09-07T12:49:36;31.30;99.90
23089;DHT22;11713;48.506;8.966;2023-09-07T12:52:01;31.40;99.90
23089;DHT22;11713;48.506;8.966;2023-09-07T12:54:34;31.50;99.90
23089;DHT22;11713;48.506;8.966;2023-09-07T12:57:01;31.60;99.90
23089;DHT22;11713;48.506;8.966;2023-09-07T12:59:28;31.70;99.90
23089;DHT22;11713;48.506;8.966;2023-09-07T13:01:54;31.80;99.90
23089;DHT22;11713;48.506;8.966;2023-09-07T13:04:21;31.90;99.90
23089;DHT22;11713;48.506;8.966;2023-09-07T13:06:47;31.50;99.90
23089;DHT22;11713;48.506;8.966;2023-09-07T13:09:13;31.50;99.90
23089;DHT22;11713;48.506;8.966;2023-09-07T13:11:39;31.30;99.90
23089;DHT22;11713;48.506;8.966;2023-09-07T13:14:05;31.50;99.90
23089;DHT22;11713;48.506;8.966;2023-09-07T13:16:31;31.60;99.90
23089;DHT22;11713;48.506;8.966;2023-09-07T13:18:58;31.90;99.90
23089;DHT22;11713;48.506;8.966;2023-09-07T13:21:24;31.90;99.90
23089;DHT22;11713;48.506;8.966;2023-09-07T13:23:50;31.90;99.90
23089;DHT22;11713;48.506;8.966;2023-09-07T13:26:19;32.10;99.90
23089;DHT22;11713;48.506;8.966;2023-09-07T13:28:47;32.00;99.90
23089;DHT22;11713;48.506;8.966;2023-09-07T13:31:12;32.00;99.90
23089;DHT22;11713;48.506;8.966;2023-09-07T13:33:38;32.00;99.90
23089;DHT22;11713;48.506;8.966;2023-09-07T13:36:04;32.00;99.90
23089;DHT22;11713;48.506;8.966;2023-09-07T13:38:30;32.10;99.90
23089;DHT22;11713;48.506;8.966;2023-09-07T13:40:56;32.00;99.90
23089;DHT22;11713;48.506;8.966;2023-09-07T13:43:21;32.00;99.90
23089;DHT22;11713;48.506;8.966;2023-09-07T13:45:47;32.30;99.90
23089;DHT22;11713;48.506;8.966;2023-09-07T13:48:13;32.30;99.90
23089;DHT22;11713;48.506;8.966;2023-09-07T13:50:39;32.50;99.90
23089;DHT22;11713;48.506;8.966;2023-09-07T13:53:05;32.70;99.90
23089;DHT22;11713;48.506;8.966;2023-09-07T13:55:31;33.00;99.90
23089;DHT22;11713;48.506;8.966;2023-09-07T13:57:56;33.10;99.90
23089;DHT22;11713;48.506;8.966;2023-09-07T14:00:22;32.90;99.90
23089;DHT22;11713;48.506;8.966;2023-09-07T14:02:48;33.00;99.90
23089;DHT22;11713;48.506;8.966;2023-09-07T14:05:14;32.80;99.90
23089;DHT22;11713;48.506;8.966;2023-09-07T14:07:40;32.70;99.90
23089;DHT22;11713;48.506;8.966;2023-09-07T14:10:06;32.80;99.90
23089;DHT22;11713;48.506;8.966;2023-09-07T14:12:32;33.00;99.90
23089;DHT22;11713;48.506;8.966;2023-09-07T14:14:58;33.20;99.90
23089;DHT22;11713;48.506;8.966;2023-09-07T14:17:24;33.20;99.90
23089;DHT22;11713;48.506;8.966;2023-09-07T14:19:50;33.10;99.90
23089;DHT22;11713;48.506;8.966;2023-09-07T14:22:16;33.10;99.90
23089;DHT22;11713;48.506;8.966;2023-09-07T14:24:41;32.90;99.90
23089;DHT22;11713;48.506;8.966;2023-09-07T14:27:07;32.90;99.90
23089;DHT22;11713;48.506;8.966;2023-09-07T14:29:35;33.00;99.90
23089;DHT22;11713;48.506;8.966;2023-09-07T14:32:02;32.90;99.90
23089;DHT22;11713;48.506;8.966;2023-09-07T14:34:28;32.90;99.90
23089;DHT22;11713;48.506;8.966;2023-09-07T14:36:54;33.00;99.90
23089;DHT22;11713;48.506;8.966;2023-09-07T14:39:21;33.10;99.90
23089;DHT22;11713;48.506;8.966;2023-09-07T14:41:50;33.30;99.90
23089;DHT22;11713;48.506;8.966;2023-09-07T14:44:19;33.40;99.90
23089;DHT22;11713;48.506;8.966;2023-09-07T14:46:44;33.40;99.90
23089;DHT22;11713;48.506;8.966;2023-09-07T14:49:12;33.60;99.90
23089;DHT22;11713;48.506;8.966;2023-09-07T14:51:38;33.70;99.90
23089;DHT22;11713;48.506;8.966;2023-09-07T14:54:04;33.60;99.90
23089;DHT22;11713;48.506;8.966;2023-09-07T14:56:30;33.70;99.90
23089;DHT22;11713;48.506;8.966;2023-09-07T14:59:01;33.60;99.90
23089;DHT22;11713;48.506;8.966;2023-09-07T15:01:26;33.50;99.90
23089;DHT22;11713;48.506;8.966;2023-09-07T15:03:52;33.10;99.90
23089;DHT22;11713;48.506;8.966;2023-09-07T15:06:18;33.10;99.90
23089;DHT22;11713;48.506;8.966;2023-09-07T15:08:45;32.80;99.90
23089;DHT22;11713;48.506;8.966;2023-09-07T15:11:10;32.70;99.90
23089;DHT22;11713;48.506;8.966;2023-09-07T15:13:39;32.50;99.90
23089;DHT22;11713;48.506;8.966;2023-09-07T15:16:05;32.60;99.90
23089;DHT22;11713;48.506;8.966;2023-09-07T15:18:34;32.50;99.90
23089;DHT22;11713;48.506;8.966;2023-09-07T15:21:00;32.40;99.90
23089;DHT22;11713;48.506;8.966;2023-09-07T15:23:26;32.40;99.90
23089;DHT22;11713;48.506;8.966;2023-09-07T15:25:52;31.90;99.90
23089;DHT22;11713;48.506;8.966;2023-09-07T15:28:18;31.90;99.90
23089;DHT22;11713;48.506;8.966;2023-09-07T15:30:44;31.90;99.90
23089;DHT22;11713;48.506;8.966;2023-09-07T15:33:10;31.90;99.90